createdAt,value
2019-03-18T00:00:14.707Z,4.68
2019-03-18T00:01:14.679Z,4.68
2019-03-18T00:02:14.645Z,4.75
2019-03-18T00:03:14.618Z,4.68
2019-03-18T00:04:14.592Z,4.76
2019-03-18T00:05:14.563Z,4.76
2019-03-18T00:06:14.534Z,4.74
2019-03-18T00:07:14.505Z,4.67
2019-03-18T00:08:14.479Z,4.68
2019-03-18T00:09:14.449Z,4.67
2019-03-18T00:10:14.422Z,4.63
2019-03-18T00:11:14.396Z,4.66
2019-03-18T00:12:14.365Z,4.68
2019-03-18T00:13:14.338Z,4.57
2019-03-18T00:14:14.308Z,4.70
2019-03-18T00:15:14.285Z,4.64
2019-03-18T00:16:14.250Z,4.58
2019-03-18T00:17:14.226Z,4.64
2019-03-18T00:18:14.198Z,4.67
2019-03-18T00:19:14.169Z,4.68
2019-03-18T00:20:14.143Z,4.53
2019-03-18T00:21:14.114Z,4.50
2019-03-18T00:22:14.088Z,4.66
2019-03-18T00:23:14.056Z,4.56
2019-03-18T00:24:14.031Z,4.68
2019-03-18T00:25:14.005Z,4.60
2019-03-18T00:26:13.973Z,4.57
2019-03-18T00:27:13.945Z,4.61
2019-03-18T00:28:13.917Z,4.53
2019-03-18T00:29:13.890Z,4.53
2019-03-18T00:30:13.903Z,4.53
2019-03-18T00:31:14.831Z,4.56
2019-03-18T00:32:13.806Z,4.56
2019-03-18T00:33:13.776Z,4.57
2019-03-18T00:34:13.747Z,4.66
2019-03-18T00:35:13.744Z,4.53
2019-03-18T00:36:13.691Z,4.52
2019-03-18T00:37:13.797Z,4.56
2019-03-18T00:38:13.633Z,4.57
2019-03-18T00:39:13.614Z,4.56
2019-03-18T00:40:13.578Z,4.58
2019-03-18T00:41:13.548Z,4.61
2019-03-18T00:42:13.523Z,4.67
2019-03-18T00:43:13.496Z,4.67
2019-03-18T00:44:13.466Z,4.66
2019-03-18T00:45:15.088Z,4.71
2019-03-18T00:46:13.424Z,4.76
2019-03-18T00:47:13.382Z,4.66
2019-03-18T00:48:13.356Z,4.66
2019-03-18T00:49:13.323Z,4.64
2019-03-18T00:50:13.296Z,4.74
2019-03-18T00:51:13.269Z,4.67
2019-03-18T00:52:13.239Z,4.67
2019-03-18T00:53:13.214Z,4.66
2019-03-18T00:54:13.184Z,4.63
2019-03-18T00:55:13.158Z,4.71
2019-03-18T00:56:13.135Z,4.67
2019-03-18T00:57:13.098Z,4.66
2019-03-18T00:58:13.073Z,4.64
2019-03-18T00:59:13.558Z,4.64
2019-03-18T01:00:13.014Z,4.70
2019-03-18T01:01:13.045Z,4.66
2019-03-18T01:02:12.957Z,4.70
2019-03-18T01:03:13.557Z,4.61
2019-03-18T01:04:12.899Z,4.71
2019-03-18T01:05:12.900Z,4.68
2019-03-18T01:06:12.847Z,4.68
2019-03-18T01:07:12.819Z,4.71
2019-03-18T01:08:12.788Z,4.66
2019-03-18T01:09:12.758Z,4.67
2019-03-18T01:10:12.731Z,4.66
2019-03-18T01:11:12.704Z,4.68
2019-03-18T01:12:12.673Z,4.70
2019-03-18T01:13:12.643Z,4.68
2019-03-18T01:14:12.625Z,4.74
2019-03-18T01:15:12.590Z,4.67
2019-03-18T01:16:12.560Z,4.66
2019-03-18T01:17:12.533Z,4.68
2019-03-18T01:18:12.506Z,4.74
2019-03-18T01:19:12.477Z,4.67
2019-03-18T01:20:12.448Z,4.70
2019-03-18T01:21:12.423Z,4.71
2019-03-18T01:22:12.392Z,4.68
2019-03-18T01:23:12.369Z,4.68
2019-03-18T01:24:12.336Z,4.67
2019-03-18T01:25:12.307Z,4.68
2019-03-18T01:26:12.281Z,4.71
2019-03-18T01:27:12.252Z,4.74
2019-03-18T01:28:12.222Z,4.75
2019-03-18T01:29:12.195Z,4.70
2019-03-18T01:30:12.169Z,4.67
2019-03-18T01:31:12.140Z,4.76
2019-03-18T01:32:12.115Z,4.83
2019-03-18T01:33:12.082Z,4.82
2019-03-18T01:34:12.069Z,4.78
2019-03-18T01:35:12.026Z,4.76
2019-03-18T01:36:12.001Z,4.78
2019-03-18T01:37:11.968Z,4.86
2019-03-18T01:38:12.087Z,4.87
2019-03-18T01:39:11.919Z,4.79
2019-03-18T01:40:11.885Z,4.78
2019-03-18T01:41:11.859Z,4.75
2019-03-18T01:42:11.838Z,4.71
2019-03-18T01:43:11.803Z,4.82
2019-03-18T01:44:11.774Z,4.78
2019-03-18T01:45:11.750Z,4.78
2019-03-18T01:46:11.718Z,4.67
2019-03-18T01:47:11.689Z,4.71
2019-03-18T01:48:11.659Z,4.71
2019-03-18T01:49:11.638Z,4.84
2019-03-18T01:50:11.608Z,4.71
2019-03-18T01:51:11.577Z,4.75
2019-03-18T01:52:11.548Z,4.71
2019-03-18T01:53:11.520Z,4.74
2019-03-18T01:54:11.492Z,4.68
2019-03-18T01:55:11.465Z,4.71
2019-03-18T01:56:11.436Z,4.76
2019-03-18T01:57:11.411Z,4.83
2019-03-18T01:58:11.398Z,4.83
2019-03-18T01:59:11.361Z,4.79
2019-03-18T02:00:11.326Z,4.83
2019-03-18T02:01:11.300Z,4.89
2019-03-18T02:02:11.272Z,4.92
2019-03-18T02:03:11.240Z,4.83
2019-03-18T02:04:11.213Z,4.92
2019-03-18T02:05:11.184Z,4.92
2019-03-18T02:06:11.159Z,4.84
2019-03-18T02:07:13.073Z,4.86
2019-03-18T02:08:11.100Z,4.87
2019-03-18T02:09:11.073Z,4.87
2019-03-18T02:10:11.053Z,4.84
2019-03-18T02:11:11.022Z,4.86
2019-03-18T02:12:10.987Z,4.90
2019-03-18T02:13:10.962Z,4.84
2019-03-18T02:14:10.934Z,4.84
2019-03-18T02:15:10.907Z,4.76
2019-03-18T02:16:10.877Z,4.84
2019-03-18T02:17:10.850Z,4.76
2019-03-18T02:18:10.821Z,4.84
2019-03-18T02:19:10.795Z,4.86
2019-03-18T02:20:10.766Z,4.75
2019-03-18T02:21:10.739Z,4.61
2019-03-18T02:22:10.714Z,4.75
2019-03-18T02:23:10.688Z,4.71
2019-03-18T02:24:10.655Z,4.74
2019-03-18T02:25:10.627Z,4.67
2019-03-18T02:26:10.604Z,4.67
2019-03-18T02:27:10.572Z,4.75
2019-03-18T02:28:10.546Z,4.68
2019-03-18T02:29:10.515Z,4.64
2019-03-18T02:30:10.491Z,4.63
2019-03-18T02:31:10.465Z,4.71
2019-03-18T02:32:10.432Z,4.71
2019-03-18T02:33:10.409Z,4.68
2019-03-18T02:34:10.448Z,4.68
2019-03-18T02:35:10.359Z,4.71
2019-03-18T02:36:10.323Z,4.70
2019-03-18T02:37:10.298Z,4.68
2019-03-18T02:38:10.265Z,4.68
2019-03-18T02:39:10.345Z,4.70
2019-03-18T02:40:10.208Z,4.64
2019-03-18T02:41:10.178Z,4.66
2019-03-18T02:42:10.153Z,4.67
2019-03-18T02:43:10.133Z,4.68
2019-03-18T02:44:10.096Z,4.76
2019-03-18T02:45:10.073Z,4.66
2019-03-18T02:46:10.966Z,4.56
2019-03-18T02:47:10.014Z,4.57
2019-03-18T02:48:09.983Z,4.68
2019-03-18T02:49:09.957Z,4.60
2019-03-18T02:50:09.932Z,4.56
2019-03-18T02:51:09.900Z,4.60
2019-03-18T02:52:09.871Z,4.56
2019-03-18T02:53:09.860Z,4.56
2019-03-18T02:54:09.814Z,4.57
2019-03-18T02:55:09.788Z,4.56
2019-03-18T02:56:11.585Z,4.50
2019-03-18T02:57:09.731Z,4.60
2019-03-18T02:58:09.702Z,4.67
2019-03-18T02:59:09.678Z,4.64
2019-03-18T03:00:09.648Z,4.52
2019-03-18T03:01:09.633Z,4.58
2019-03-18T03:02:09.592Z,4.58
2019-03-18T03:03:09.655Z,4.70
2019-03-18T03:04:09.535Z,4.64
2019-03-18T03:05:09.510Z,4.68
2019-03-18T03:06:09.486Z,4.60
2019-03-18T03:07:09.455Z,4.61
2019-03-18T03:08:09.424Z,4.68
2019-03-18T03:09:09.396Z,4.63
2019-03-18T03:10:09.364Z,4.61
2019-03-18T03:11:09.336Z,4.71
2019-03-18T03:12:09.307Z,4.67
2019-03-18T03:13:09.302Z,4.64
2019-03-18T03:14:09.255Z,4.70
2019-03-18T03:15:09.223Z,4.68
2019-03-18T03:16:25.060Z,4.67
2019-03-18T03:17:09.165Z,4.64
2019-03-18T03:18:09.137Z,4.70
2019-03-18T03:19:09.110Z,4.60
2019-03-18T03:20:09.082Z,4.71
2019-03-18T03:21:09.055Z,4.70
2019-03-18T03:22:09.027Z,4.82
2019-03-18T03:23:09.002Z,4.71
2019-03-18T03:24:08.976Z,4.82
2019-03-18T03:25:08.974Z,4.75
2019-03-18T03:26:08.916Z,4.71
2019-03-18T03:27:08.890Z,4.87
2019-03-18T03:28:08.868Z,4.83
2019-03-18T03:29:08.829Z,4.82
2019-03-18T03:30:08.803Z,4.84
2019-03-18T03:31:08.776Z,4.74
2019-03-18T03:32:08.745Z,4.76
2019-03-18T03:33:08.716Z,4.82
2019-03-18T03:34:13.239Z,4.71
2019-03-18T03:35:08.675Z,4.82
2019-03-18T03:36:08.634Z,4.74
2019-03-18T03:37:08.700Z,4.71
2019-03-18T03:38:08.581Z,4.78
2019-03-18T03:39:08.564Z,4.75
2019-03-18T03:40:08.689Z,4.76
2019-03-18T03:41:08.497Z,4.83
2019-03-18T03:42:08.468Z,4.82
2019-03-18T03:43:08.437Z,4.74
2019-03-18T03:44:08.421Z,4.79
2019-03-18T03:45:08.379Z,4.75
2019-03-18T03:46:08.359Z,4.84
2019-03-18T03:47:08.325Z,4.84
2019-03-18T03:48:08.299Z,4.82
2019-03-18T03:49:08.270Z,4.87
2019-03-18T03:50:08.245Z,4.86
2019-03-18T03:51:08.213Z,4.87
2019-03-18T03:52:08.196Z,4.82
2019-03-18T03:53:08.160Z,4.84
2019-03-18T03:54:08.131Z,4.74
2019-03-18T03:55:08.110Z,4.76
2019-03-18T03:56:08.198Z,4.83
2019-03-18T03:57:08.056Z,4.76
2019-03-18T03:58:08.025Z,4.75
2019-03-18T03:59:08.056Z,4.71
2019-03-18T04:00:07.980Z,4.76
2019-03-18T04:01:07.934Z,4.76
2019-03-18T04:02:07.907Z,4.71
2019-03-18T04:03:07.884Z,4.76
2019-03-18T04:04:07.848Z,4.75
2019-03-18T04:05:07.826Z,4.83
2019-03-18T04:06:07.832Z,4.78
2019-03-18T04:07:07.767Z,4.82
2019-03-18T04:08:07.736Z,4.75
2019-03-18T04:09:07.708Z,4.78
2019-03-18T04:10:07.682Z,4.74
2019-03-18T04:11:09.080Z,4.75
2019-03-18T04:12:07.624Z,4.87
2019-03-18T04:13:07.670Z,4.87
2019-03-18T04:14:07.568Z,4.79
2019-03-18T04:15:07.540Z,4.87
2019-03-18T04:16:07.517Z,4.95
2019-03-18T04:17:07.486Z,4.76
2019-03-18T04:18:07.456Z,4.89
2019-03-18T04:19:07.429Z,4.90
2019-03-18T04:20:07.412Z,4.79
2019-03-18T04:21:07.448Z,4.76
2019-03-18T04:22:07.351Z,4.78
2019-03-18T04:23:07.341Z,4.86
2019-03-18T04:24:07.287Z,4.83
2019-03-18T04:25:07.266Z,4.84
2019-03-18T04:26:07.239Z,4.78
2019-03-18T04:27:07.212Z,4.82
2019-03-18T04:28:07.179Z,4.92
2019-03-18T04:29:07.164Z,4.86
2019-03-18T04:30:07.121Z,4.86
2019-03-18T04:31:07.097Z,4.84
2019-03-18T04:32:07.066Z,4.86
2019-03-18T04:33:07.039Z,4.86
2019-03-18T04:34:07.008Z,4.90
2019-03-18T04:35:06.988Z,4.89
2019-03-18T04:36:06.954Z,4.86
2019-03-18T04:37:06.927Z,4.75
2019-03-18T04:38:06.898Z,4.75
2019-03-18T04:39:06.875Z,4.84
2019-03-18T04:40:06.848Z,4.76
2019-03-18T04:41:06.814Z,4.92
2019-03-18T04:42:06.787Z,4.86
2019-03-18T04:43:06.758Z,4.86
2019-03-18T04:44:06.728Z,4.86
2019-03-18T04:45:06.704Z,4.86
2019-03-18T04:46:06.700Z,4.83
2019-03-18T04:47:14.163Z,4.94
2019-03-18T04:48:06.622Z,4.84
2019-03-18T04:49:06.590Z,4.90
2019-03-18T04:50:06.565Z,4.87
2019-03-18T04:51:06.539Z,4.86
2019-03-18T04:52:06.516Z,4.84
2019-03-18T04:53:06.480Z,4.95
2019-03-18T04:54:06.455Z,4.83
2019-03-18T04:55:06.426Z,4.87
2019-03-18T04:56:06.403Z,5.01
2019-03-18T04:57:06.370Z,4.92
2019-03-18T04:58:06.350Z,4.92
2019-03-18T04:59:06.315Z,4.94
2019-03-18T05:00:06.287Z,4.79
2019-03-18T05:01:06.262Z,4.76
2019-03-18T05:02:06.251Z,4.75
2019-03-18T05:03:06.208Z,4.76
2019-03-18T05:04:06.177Z,4.75
2019-03-18T05:05:06.149Z,4.71
2019-03-18T05:06:06.135Z,4.70
2019-03-18T05:07:06.105Z,4.71
2019-03-18T05:08:06.075Z,4.70
2019-03-18T05:09:06.048Z,4.66
2019-03-18T05:10:06.015Z,4.67
2019-03-18T05:11:05.984Z,4.67
2019-03-18T05:12:06.653Z,4.68
2019-03-18T05:13:05.933Z,4.71
2019-03-18T05:14:05.903Z,4.67
2019-03-18T05:15:05.876Z,4.70
2019-03-18T05:16:05.852Z,4.75
2019-03-18T05:17:05.819Z,4.71
2019-03-18T05:18:05.795Z,4.76
2019-03-18T05:19:05.766Z,4.68
2019-03-18T05:20:05.736Z,4.74
2019-03-18T05:21:05.714Z,4.67
2019-03-18T05:22:05.684Z,4.68
2019-03-18T05:23:05.658Z,4.71
2019-03-18T05:24:05.627Z,4.71
2019-03-18T05:25:05.600Z,4.71
2019-03-18T05:26:07.112Z,4.74
2019-03-18T05:27:05.548Z,4.68
2019-03-18T05:28:05.519Z,4.70
2019-03-18T05:29:05.487Z,4.68
2019-03-18T05:30:05.465Z,4.71
2019-03-18T05:31:05.446Z,4.74
2019-03-18T05:32:05.403Z,4.74
2019-03-18T05:33:05.379Z,4.75
2019-03-18T05:34:05.355Z,4.75
2019-03-18T05:35:05.321Z,4.74
2019-03-18T05:36:05.293Z,4.70
2019-03-18T05:37:05.287Z,4.75
2019-03-18T05:38:05.239Z,4.70
2019-03-18T05:39:05.215Z,4.74
2019-03-18T05:40:05.187Z,4.74
2019-03-18T05:41:05.157Z,4.75
2019-03-18T05:42:05.519Z,4.66
2019-03-18T05:43:05.102Z,4.70
2019-03-18T05:44:07.870Z,4.74
2019-03-18T05:45:05.051Z,4.67
2019-03-18T05:46:05.019Z,4.76
2019-03-18T05:47:04.993Z,4.75
2019-03-18T05:48:04.969Z,4.71
2019-03-18T05:49:04.939Z,4.78
2019-03-18T05:50:04.911Z,4.79
2019-03-18T05:51:04.883Z,4.84
2019-03-18T05:52:04.850Z,4.82
2019-03-18T05:53:04.829Z,4.83
2019-03-18T05:54:04.800Z,4.83
2019-03-18T05:55:04.774Z,4.84
2019-03-18T05:56:04.749Z,4.82
2019-03-18T05:57:04.730Z,4.86
2019-03-18T05:58:04.688Z,4.89
2019-03-18T05:59:04.664Z,4.86
2019-03-18T06:00:04.633Z,4.82
2019-03-18T06:01:04.603Z,4.90
2019-03-18T06:02:04.577Z,4.87
2019-03-18T06:03:04.546Z,4.84
2019-03-18T06:04:04.524Z,4.95
2019-03-18T06:05:04.497Z,4.90
2019-03-18T06:06:04.465Z,4.84
2019-03-18T06:07:04.440Z,4.90
2019-03-18T06:08:04.412Z,4.94
2019-03-18T06:09:04.387Z,5.00
2019-03-18T06:10:04.352Z,4.97
2019-03-18T06:11:04.328Z,5.04
2019-03-18T06:12:04.304Z,4.95
2019-03-18T06:13:04.284Z,4.98
2019-03-18T06:14:04.245Z,5.02
2019-03-18T06:15:04.216Z,4.97
2019-03-18T06:16:04.186Z,4.95
2019-03-18T06:17:04.159Z,5.04
2019-03-18T06:18:04.134Z,5.04
2019-03-18T06:19:04.104Z,5.04
2019-03-18T06:20:04.076Z,5.00
2019-03-18T06:21:04.048Z,5.00
2019-03-18T06:22:04.021Z,5.08
2019-03-18T06:23:03.994Z,5.12
2019-03-18T06:24:06.321Z,5.05
2019-03-18T06:25:03.939Z,5.08
2019-03-18T06:26:03.912Z,5.10
2019-03-18T06:27:03.883Z,5.10
2019-03-18T06:28:03.857Z,5.15
2019-03-18T06:29:03.842Z,5.00
2019-03-18T06:30:03.800Z,5.01
2019-03-18T06:31:03.774Z,5.10
2019-03-18T06:32:03.745Z,5.13
2019-03-18T06:33:03.718Z,5.05
2019-03-18T06:34:03.689Z,5.07
2019-03-18T06:35:03.664Z,5.07
2019-03-18T06:36:03.648Z,5.02
2019-03-18T06:37:03.606Z,5.02
2019-03-18T06:38:03.626Z,4.97
2019-03-18T06:39:03.554Z,5.01
2019-03-18T06:40:04.307Z,5.00
2019-03-18T06:41:03.502Z,5.04
2019-03-18T06:42:03.470Z,5.07
2019-03-18T06:43:03.568Z,5.00
2019-03-18T06:44:03.416Z,5.10
2019-03-18T06:45:03.397Z,5.13
2019-03-18T06:46:03.366Z,5.22
2019-03-18T06:47:03.333Z,5.18
2019-03-18T06:48:05.200Z,5.10
2019-03-18T06:49:03.313Z,5.19
2019-03-18T06:50:06.139Z,5.25
2019-03-18T06:51:03.228Z,5.22
2019-03-18T06:52:03.201Z,5.25
2019-03-18T06:53:03.170Z,5.12
2019-03-18T06:54:03.148Z,5.26
2019-03-18T06:55:03.115Z,5.19
2019-03-18T06:56:03.098Z,5.23
2019-03-18T06:57:03.058Z,5.16
2019-03-18T06:58:03.033Z,5.19
2019-03-18T06:59:03.005Z,5.31
2019-03-18T07:00:02.988Z,5.37
2019-03-18T07:01:02.952Z,5.29
2019-03-18T07:02:02.922Z,5.37
2019-03-18T07:03:02.900Z,5.33
2019-03-18T07:04:02.868Z,5.43
2019-03-18T07:05:02.859Z,5.33
2019-03-18T07:06:02.829Z,5.44
2019-03-18T07:07:02.784Z,5.43
2019-03-18T07:08:02.761Z,5.46
2019-03-18T07:09:02.729Z,5.54
2019-03-18T07:10:02.703Z,5.51
2019-03-18T07:11:02.677Z,5.55
2019-03-18T07:12:02.647Z,5.52
2019-03-18T07:13:02.626Z,5.51
2019-03-18T07:14:02.597Z,5.67
2019-03-18T07:15:02.575Z,5.64
2019-03-18T07:16:02.540Z,5.62
2019-03-18T07:17:02.513Z,5.55
2019-03-18T07:18:02.494Z,5.55
2019-03-18T07:19:02.458Z,5.65
2019-03-18T07:20:02.437Z,5.70
2019-03-18T07:21:02.400Z,5.67
2019-03-18T07:22:02.376Z,5.73
2019-03-18T07:23:02.349Z,5.79
2019-03-18T07:24:02.324Z,5.91
2019-03-18T07:25:02.292Z,5.87
2019-03-18T07:26:02.315Z,5.83
2019-03-18T07:27:02.244Z,5.90
2019-03-18T07:28:02.211Z,5.95
2019-03-18T07:29:02.191Z,5.94
2019-03-18T07:30:02.183Z,5.99
2019-03-18T07:31:02.132Z,6.01
2019-03-18T07:32:02.104Z,6.01
2019-03-18T07:33:02.081Z,5.98
2019-03-18T07:34:02.050Z,6.01
2019-03-18T07:35:02.419Z,5.99
2019-03-18T07:36:01.996Z,6.01
2019-03-18T07:37:01.966Z,5.99
2019-03-18T07:38:01.943Z,5.97
2019-03-18T07:39:01.917Z,6.06
2019-03-18T07:40:01.891Z,6.07
2019-03-18T07:41:01.859Z,6.02
2019-03-18T07:42:01.843Z,6.16
2019-03-18T07:43:01.806Z,6.12
2019-03-18T07:44:01.780Z,6.17
2019-03-18T07:45:01.753Z,6.16
2019-03-18T07:46:01.723Z,6.32
2019-03-18T07:47:01.748Z,6.19
2019-03-18T07:48:01.670Z,6.32
2019-03-18T07:49:01.641Z,6.32
2019-03-18T07:50:01.616Z,6.38
2019-03-18T07:51:01.594Z,6.28
2019-03-18T07:52:01.561Z,6.32
2019-03-18T07:53:01.533Z,6.28
2019-03-18T07:54:01.524Z,6.19
2019-03-18T07:55:01.487Z,6.19
2019-03-18T07:56:01.453Z,6.28
2019-03-18T07:57:01.427Z,6.34
2019-03-18T07:58:01.401Z,6.26
2019-03-18T07:59:01.375Z,6.29
2019-03-18T08:00:01.352Z,6.41
2019-03-18T08:01:01.382Z,6.38
2019-03-18T08:02:01.294Z,6.44
2019-03-18T08:03:03.493Z,6.49
2019-03-18T08:04:01.239Z,6.56
2019-03-18T08:05:01.212Z,6.46
2019-03-18T08:06:01.191Z,6.49
2019-03-18T08:07:01.160Z,6.47
2019-03-18T08:08:01.133Z,6.46
2019-03-18T08:09:01.106Z,6.59
2019-03-18T08:10:01.081Z,6.64
2019-03-18T08:11:01.055Z,6.56
2019-03-18T08:12:01.028Z,6.64
2019-03-18T08:13:01.002Z,6.64
2019-03-18T08:14:00.978Z,6.70
2019-03-18T08:15:00.947Z,6.72
2019-03-18T08:16:00.921Z,6.78
2019-03-18T08:17:00.896Z,6.72
2019-03-18T08:18:00.867Z,6.72
2019-03-18T08:19:00.843Z,6.67
2019-03-18T08:20:03.282Z,6.75
2019-03-18T08:21:00.789Z,6.71
2019-03-18T08:22:00.763Z,6.75
2019-03-18T08:23:00.737Z,6.75
2019-03-18T08:24:00.710Z,6.80
2019-03-18T08:25:00.684Z,6.75
2019-03-18T08:26:00.670Z,6.82
2019-03-18T08:27:00.633Z,6.80
2019-03-18T08:28:00.609Z,6.83
2019-03-18T08:29:00.585Z,6.87
2019-03-18T08:30:00.564Z,6.83
2019-03-18T08:31:00.528Z,6.77
2019-03-18T08:32:00.844Z,6.83
2019-03-18T08:33:00.489Z,6.96
2019-03-18T08:34:00.460Z,6.96
2019-03-18T08:35:00.424Z,7.08
2019-03-18T08:36:00.401Z,7.05
2019-03-18T08:37:00.381Z,7.10
2019-03-18T08:38:00.345Z,7.08
2019-03-18T08:39:00.326Z,7.13
2019-03-18T08:40:00.386Z,7.22
2019-03-18T08:41:00.268Z,7.18
2019-03-18T08:42:00.241Z,7.21
2019-03-18T08:43:00.215Z,7.19
2019-03-18T08:44:00.189Z,7.26
2019-03-18T08:45:00.362Z,7.32
2019-03-18T08:46:00.139Z,7.25
2019-03-18T08:47:00.113Z,7.29
2019-03-18T08:48:00.088Z,7.23
2019-03-18T08:49:00.059Z,7.43
2019-03-18T08:50:00.036Z,7.44
2019-03-18T08:51:00.012Z,7.48
2019-03-18T08:51:59.991Z,7.55
2019-03-18T08:52:59.959Z,7.59
2019-03-18T08:53:59.933Z,7.69
2019-03-18T08:54:59.908Z,7.69
2019-03-18T08:55:59.882Z,7.47
2019-03-18T08:56:59.860Z,7.48
2019-03-18T08:57:59.830Z,7.66
2019-03-18T08:58:59.815Z,7.62
2019-03-18T08:59:59.780Z,7.59
2019-03-18T09:00:59.758Z,7.59
2019-03-18T09:02:00.057Z,7.74
2019-03-18T09:02:59.714Z,7.70
2019-03-18T09:03:59.679Z,7.66
2019-03-18T09:04:59.653Z,7.66
2019-03-18T09:05:59.628Z,7.61
2019-03-18T09:06:59.602Z,7.67
2019-03-18T09:07:59.579Z,7.74
2019-03-18T09:08:59.562Z,7.84
2019-03-18T09:09:59.528Z,7.81
2019-03-18T09:10:59.507Z,7.77
2019-03-18T09:12:01.166Z,7.80
2019-03-18T09:12:59.452Z,7.70
2019-03-18T09:13:59.427Z,7.72
2019-03-18T09:14:59.401Z,7.74
2019-03-18T09:15:59.377Z,7.62
2019-03-18T09:16:59.353Z,7.64
2019-03-18T09:17:59.339Z,7.67
2019-03-18T09:19:08.125Z,7.75
2019-03-18T09:19:59.275Z,7.66
2019-03-18T09:20:59.251Z,7.85
2019-03-18T09:21:59.223Z,7.80
2019-03-18T09:23:01.379Z,7.87
2019-03-18T09:23:59.178Z,8.03
2019-03-18T09:24:59.147Z,8.16
2019-03-18T09:25:59.122Z,8.28
2019-03-18T09:27:02.705Z,8.44
2019-03-18T09:28:00.671Z,8.49
2019-03-18T09:28:59.047Z,8.52
2019-03-18T09:29:59.024Z,8.63
2019-03-18T09:30:58.998Z,8.64
2019-03-18T09:31:58.977Z,8.68
2019-03-18T09:32:58.960Z,8.77
2019-03-18T09:33:58.942Z,8.81
2019-03-18T09:34:58.900Z,8.79
2019-03-18T09:35:58.876Z,8.75
2019-03-18T09:36:58.861Z,8.74
2019-03-18T09:37:58.826Z,8.84
2019-03-18T09:38:58.802Z,8.78
2019-03-18T09:39:58.778Z,8.81
2019-03-18T09:40:58.753Z,8.81
2019-03-18T09:41:58.730Z,8.81
2019-03-18T09:42:58.704Z,8.84
2019-03-18T09:43:58.680Z,8.89
2019-03-18T09:44:58.655Z,8.96
2019-03-18T09:45:58.637Z,8.93
2019-03-18T09:46:58.611Z,8.92
2019-03-18T09:47:58.582Z,8.95
2019-03-18T09:48:58.560Z,8.92
2019-03-18T09:49:58.535Z,8.79
2019-03-18T09:51:00.176Z,8.66
2019-03-18T09:51:58.491Z,8.69
2019-03-18T09:52:58.463Z,8.77
2019-03-18T09:54:00.201Z,8.69
2019-03-18T09:54:58.419Z,8.74
2019-03-18T09:55:58.389Z,8.64
2019-03-18T09:56:58.378Z,8.68
2019-03-18T09:57:58.343Z,8.60
2019-03-18T09:58:58.317Z,8.41
2019-03-18T09:59:58.294Z,8.41
2019-03-18T10:00:58.270Z,8.63
2019-03-18T10:01:58.251Z,8.56
2019-03-18T10:02:58.222Z,8.63
2019-03-18T10:03:58.196Z,8.78
2019-03-18T10:04:58.183Z,8.68
2019-03-18T10:05:58.152Z,8.74
2019-03-18T10:06:58.126Z,8.77
2019-03-18T10:07:58.100Z,8.77
2019-03-18T10:08:58.076Z,8.82
2019-03-18T10:09:58.052Z,8.92
2019-03-18T10:10:58.028Z,8.89
2019-03-18T10:11:58.002Z,8.95
2019-03-18T10:12:57.978Z,8.89
2019-03-18T10:13:57.955Z,8.90
2019-03-18T10:14:57.933Z,8.99
2019-03-18T10:15:57.917Z,9.02
2019-03-18T10:17:08.985Z,9.24
2019-03-18T10:17:57.862Z,9.16
2019-03-18T10:18:57.833Z,9.22
2019-03-18T10:19:57.809Z,9.36
2019-03-18T10:20:57.784Z,9.36
2019-03-18T10:21:57.764Z,9.40
2019-03-18T10:22:57.736Z,9.48
2019-03-18T10:23:57.711Z,9.56
2019-03-18T10:24:57.686Z,9.69
2019-03-18T10:25:57.667Z,9.76
2019-03-18T10:26:57.641Z,9.92
2019-03-18T10:27:57.617Z,10.00
2019-03-18T10:28:57.594Z,10.05
2019-03-18T10:29:57.573Z,10.05
2019-03-18T10:30:57.548Z,9.91
2019-03-18T10:31:57.528Z,9.56
2019-03-18T10:32:57.511Z,9.49
2019-03-18T10:33:58.043Z,9.44
2019-03-18T10:34:57.459Z,9.37
2019-03-18T10:35:57.428Z,9.48
2019-03-18T10:36:57.409Z,9.64
2019-03-18T10:37:57.385Z,9.66
2019-03-18T10:38:57.360Z,9.85
2019-03-18T10:39:57.348Z,9.95
2019-03-18T10:40:59.520Z,10.25
2019-03-18T10:41:57.290Z,10.34
2019-03-18T10:42:57.265Z,10.45
2019-03-18T10:43:57.241Z,10.72
2019-03-18T10:44:57.223Z,10.87
2019-03-18T10:45:57.200Z,10.49
2019-03-18T10:46:57.176Z,10.28
2019-03-18T10:47:57.156Z,10.15
2019-03-18T10:48:57.130Z,10.05
2019-03-18T10:49:57.121Z,10.03
2019-03-18T10:50:57.088Z,9.88
2019-03-18T10:51:57.092Z,9.77
2019-03-18T10:52:57.045Z,9.90
2019-03-18T10:53:57.020Z,9.91
2019-03-18T10:54:57.006Z,9.91
2019-03-18T10:56:07.254Z,9.92
2019-03-18T10:56:56.952Z,9.81
2019-03-18T10:57:56.929Z,9.74
2019-03-18T10:58:56.906Z,9.82
2019-03-18T10:59:56.883Z,9.81
2019-03-18T11:00:56.859Z,9.73
2019-03-18T11:01:56.839Z,9.70
2019-03-18T11:02:56.816Z,9.70
2019-03-18T11:03:56.792Z,9.51
2019-03-18T11:04:56.769Z,9.47
2019-03-18T11:05:56.747Z,9.55
2019-03-18T11:06:56.725Z,9.54
2019-03-18T11:07:56.706Z,9.39
2019-03-18T11:08:56.679Z,9.51
2019-03-18T11:09:56.658Z,9.48
2019-03-18T11:10:56.636Z,9.47
2019-03-18T11:11:56.607Z,9.37
2019-03-18T11:12:56.587Z,9.34
2019-03-18T11:13:56.563Z,9.21
2019-03-18T11:14:56.541Z,9.11
2019-03-18T11:15:56.516Z,9.05
2019-03-18T11:16:56.494Z,8.92
2019-03-18T11:17:56.470Z,8.93
2019-03-18T11:18:56.444Z,8.89
2019-03-18T11:19:58.782Z,8.74
2019-03-18T11:20:56.400Z,8.92
2019-03-18T11:21:56.374Z,8.77
2019-03-18T11:22:56.353Z,8.95
2019-03-18T11:23:56.333Z,8.92
2019-03-18T11:24:56.300Z,8.86
2019-03-18T11:25:56.280Z,8.63
2019-03-18T11:26:56.253Z,8.53
2019-03-18T11:27:56.231Z,8.39
2019-03-18T11:28:56.207Z,8.38
2019-03-18T11:29:56.182Z,8.06
2019-03-18T11:30:56.156Z,8.01
2019-03-18T11:31:56.224Z,8.05
2019-03-18T11:32:56.171Z,7.93
2019-03-18T11:33:56.083Z,8.01
2019-03-18T11:34:57.058Z,7.99
2019-03-18T11:35:56.073Z,8.06
2019-03-18T11:36:56.048Z,8.16
2019-03-18T11:37:56.020Z,8.21
2019-03-18T11:38:55.970Z,8.18
2019-03-18T11:39:55.941Z,8.35
2019-03-18T11:40:55.916Z,8.24
2019-03-18T11:41:55.891Z,8.31
2019-03-18T11:42:55.873Z,8.39
2019-03-18T11:43:55.845Z,8.45
2019-03-18T11:44:55.820Z,8.41
2019-03-18T11:45:55.799Z,8.57
2019-03-18T11:46:55.772Z,8.71
2019-03-18T11:47:55.746Z,8.96
2019-03-18T11:48:55.769Z,9.08
2019-03-18T11:49:55.702Z,9.31
2019-03-18T11:50:55.676Z,9.19
2019-03-18T11:51:55.653Z,9.15
2019-03-18T11:52:55.630Z,8.95
2019-03-18T11:53:55.609Z,8.71
2019-03-18T11:54:55.581Z,8.78
2019-03-18T11:55:55.598Z,8.77
2019-03-18T11:56:55.603Z,8.71
2019-03-18T11:57:55.511Z,8.60
2019-03-18T11:58:55.495Z,8.60
2019-03-18T11:59:55.464Z,8.72
2019-03-18T12:00:55.452Z,8.78
2019-03-18T12:01:55.417Z,8.82
2019-03-18T12:02:55.481Z,8.84
2019-03-18T12:03:55.371Z,8.61
2019-03-18T12:04:57.561Z,8.66
2019-03-18T12:05:55.330Z,8.66
2019-03-18T12:06:55.303Z,8.81
2019-03-18T12:07:55.277Z,9.24
2019-03-18T12:08:55.255Z,9.59
2019-03-18T12:09:55.238Z,9.88
2019-03-18T12:10:55.265Z,10.38
2019-03-18T12:11:55.191Z,10.23
2019-03-18T12:12:55.162Z,10.67
2019-03-18T12:13:55.141Z,10.89
2019-03-18T12:14:55.131Z,11.20
2019-03-18T12:15:55.097Z,11.13
2019-03-18T12:16:55.081Z,11.00
2019-03-18T12:17:55.174Z,10.79
2019-03-18T12:18:55.095Z,11.13
2019-03-18T12:19:55.009Z,11.16
2019-03-18T12:20:55.011Z,11.43
2019-03-18T12:21:55.009Z,11.04
2019-03-18T12:22:54.970Z,11.22
2019-03-18T12:23:54.945Z,11.23
2019-03-18T12:24:54.909Z,11.30
2019-03-18T12:25:54.928Z,11.19
2019-03-18T12:26:54.864Z,11.40
2019-03-18T12:27:54.852Z,11.58
2019-03-18T12:28:54.818Z,11.80
2019-03-18T12:29:54.799Z,11.85
2019-03-18T12:30:54.775Z,11.59
2019-03-18T12:31:54.755Z,11.37
2019-03-18T12:32:54.734Z,11.04
2019-03-18T12:33:57.300Z,10.62
2019-03-18T12:34:55.413Z,10.65
2019-03-18T12:35:54.673Z,10.68
2019-03-18T12:36:54.658Z,10.67
2019-03-18T12:37:54.631Z,10.84
2019-03-18T12:38:54.612Z,11.26
2019-03-18T12:39:54.586Z,11.70
2019-03-18T12:40:54.567Z,12.12
2019-03-18T12:41:54.546Z,12.55
2019-03-18T12:42:54.526Z,12.84
2019-03-18T12:43:54.568Z,13.21
2019-03-18T12:44:54.486Z,13.42
2019-03-18T12:45:54.468Z,13.42
2019-03-18T12:46:54.447Z,13.39
2019-03-18T12:47:54.424Z,12.37
2019-03-18T12:48:54.405Z,12.51
2019-03-18T12:49:54.384Z,12.63
2019-03-18T12:50:56.552Z,12.73
2019-03-18T12:51:54.344Z,12.68
2019-03-18T12:52:54.327Z,12.93
2019-03-18T12:53:54.305Z,12.84
2019-03-18T12:54:54.295Z,12.58
2019-03-18T12:55:54.269Z,12.51
2019-03-18T12:56:54.246Z,12.26
2019-03-18T12:57:54.253Z,12.18
2019-03-18T12:58:54.213Z,12.05
2019-03-18T12:59:54.189Z,11.86
2019-03-18T13:00:54.168Z,11.80
2019-03-18T13:01:54.150Z,11.76
2019-03-18T13:02:54.129Z,11.81
2019-03-18T13:03:54.108Z,11.56
2019-03-18T13:04:54.089Z,11.56
2019-03-18T13:05:54.071Z,11.67
2019-03-18T13:06:54.056Z,11.73
2019-03-18T13:07:54.026Z,11.89
2019-03-18T13:08:54.009Z,12.12
2019-03-18T13:09:53.994Z,11.89
2019-03-18T13:10:53.966Z,11.48
2019-03-18T13:11:53.948Z,10.69
2019-03-18T13:12:53.930Z,10.71
2019-03-18T13:13:53.907Z,10.61
2019-03-18T13:14:53.885Z,10.51